createdAt,value
2018-04-24T00:01:36.645Z,3.80
2018-04-24T00:04:03.250Z,3.67
2018-04-24T00:06:29.898Z,3.70
2018-04-24T00:08:56.496Z,3.37
2018-04-24T00:11:23.030Z,2.90
2018-04-24T00:13:49.584Z,2.87
2018-04-24T00:16:16.946Z,2.77
2018-04-24T00:18:43.487Z,2.50
2018-04-24T00:21:10.775Z,3.23
2018-04-24T00:23:44.237Z,3.33
2018-04-24T00:26:10.794Z,2.60
2018-04-24T00:28:38.095Z,3.40
2018-04-24T00:31:04.725Z,2.90
2018-04-24T00:33:31.283Z,3.27
2018-04-24T00:35:57.854Z,3.60
2018-04-24T00:38:24.425Z,3.53
2018-04-24T00:40:50.989Z,2.97
2018-04-24T00:43:17.556Z,3.80
2018-04-24T00:45:44.164Z,3.70
2018-04-24T00:48:11.475Z,3.30
2018-04-24T00:50:38.795Z,3.47
2018-04-24T00:53:23.934Z,3.50
2018-04-24T00:55:51.237Z,3.53
2018-04-24T00:58:17.800Z,3.60
2018-04-24T01:00:44.370Z,3.80
2018-04-24T01:03:11.690Z,2.97
2018-04-24T01:05:38.241Z,3.50
2018-04-24T01:08:04.841Z,3.57
2018-04-24T01:10:31.412Z,3.47
2018-04-24T01:12:58.017Z,3.70
2018-04-24T01:15:24.594Z,3.83
2018-04-24T01:17:51.163Z,3.70
2018-04-24T01:20:18.492Z,3.37
2018-04-24T01:22:45.079Z,4.13
2018-04-24T01:25:11.624Z,3.57
2018-04-24T01:27:38.176Z,3.70
2018-04-24T01:30:04.806Z,3.57
2018-04-24T01:32:31.356Z,3.20
2018-04-24T01:34:57.940Z,3.80
2018-04-24T01:37:24.514Z,3.60
2018-04-24T01:39:51.813Z,3.30
2018-04-24T01:42:18.372Z,3.10
2018-04-24T01:44:45.031Z,3.07
2018-04-24T01:47:12.395Z,3.43
2018-04-24T01:49:39.735Z,3.97
2018-04-24T01:52:06.319Z,3.37
2018-04-24T01:54:32.878Z,3.00
2018-04-24T01:56:59.414Z,3.53
2018-04-24T01:59:26.013Z,3.70
2018-04-24T02:01:52.577Z,3.60
2018-04-24T02:04:19.116Z,3.67
2018-04-24T02:06:45.715Z,3.30
2018-04-24T02:09:12.282Z,3.70
2018-04-24T02:11:39.566Z,3.57
2018-04-24T02:14:06.175Z,4.50
2018-04-24T02:16:33.482Z,4.30
2018-04-24T02:19:00.044Z,3.40
2018-04-24T02:21:27.404Z,4.13
2018-04-24T02:23:53.953Z,4.77
2018-04-24T02:26:20.557Z,4.80
2018-04-24T02:28:47.135Z,4.43
2018-04-24T02:31:13.742Z,4.00
2018-04-24T02:33:40.333Z,4.70
2018-04-24T02:36:07.660Z,4.63
2018-04-24T02:38:34.283Z,4.77
2018-04-24T02:41:07.916Z,4.03
2018-04-24T02:43:34.492Z,4.50
2018-04-24T02:46:01.818Z,3.33
2018-04-24T02:48:28.411Z,4.27
2018-04-24T02:50:55.022Z,4.10
2018-04-24T02:53:22.356Z,4.40
2018-04-24T02:55:48.966Z,3.10
2018-04-24T02:58:15.561Z,3.53
2018-04-24T03:00:42.889Z,3.90
2018-04-24T03:03:09.511Z,3.53
2018-04-24T03:05:36.097Z,4.10
2018-04-24T03:08:03.469Z,4.07
2018-04-24T03:10:30.832Z,3.80
2018-04-24T03:12:58.163Z,4.20
2018-04-24T03:15:24.907Z,4.00
2018-04-24T03:17:51.510Z,4.70
2018-04-24T03:20:18.093Z,3.77
2018-04-24T03:22:44.673Z,3.77
2018-04-24T03:25:11.285Z,4.63
2018-04-24T03:27:38.590Z,4.00
2018-04-24T03:30:05.203Z,4.30
2018-04-24T03:32:31.827Z,3.90
2018-04-24T03:34:59.151Z,4.37
2018-04-24T03:37:25.732Z,4.10
2018-04-24T03:39:53.082Z,4.10
2018-04-24T03:42:20.396Z,3.67
2018-04-24T03:44:46.987Z,3.77
2018-04-24T03:47:14.345Z,4.10
2018-04-24T03:49:41.663Z,4.10
2018-04-24T03:52:08.246Z,4.20
2018-04-24T03:54:35.579Z,3.80
2018-04-24T03:57:02.215Z,3.53
2018-04-24T03:59:28.790Z,4.37
2018-04-24T04:01:56.182Z,4.53
2018-04-24T04:04:22.765Z,4.43
2018-04-24T04:06:49.365Z,4.93
2018-04-24T04:09:15.955Z,4.93
2018-04-24T04:11:43.290Z,4.80
2018-04-24T04:14:09.903Z,5.00
2018-04-24T04:16:36.491Z,4.17
2018-04-24T04:19:21.392Z,4.60
2018-04-24T04:22:06.302Z,5.00
2018-04-24T04:24:47.290Z,4.60
2018-04-24T04:27:13.922Z,4.07
2018-04-24T04:29:40.528Z,4.50
2018-04-24T04:32:07.152Z,4.80
2018-04-24T04:34:34.493Z,4.60
2018-04-24T04:37:01.097Z,4.20
2018-04-24T04:39:27.701Z,4.30
2018-04-24T04:41:54.328Z,5.40
2018-04-24T04:44:21.666Z,4.10
2018-04-24T04:46:48.286Z,4.40
2018-04-24T04:49:14.922Z,4.20
2018-04-24T04:51:41.553Z,4.23
2018-04-24T04:54:08.177Z,5.10
2018-04-24T04:56:34.834Z,5.00
2018-04-24T04:59:01.463Z,4.43
2018-04-24T05:01:28.118Z,6.37
2018-04-24T05:03:54.743Z,6.07
2018-04-24T05:06:21.455Z,5.20
2018-04-24T05:08:48.039Z,5.50
2018-04-24T05:11:14.650Z,5.00
2018-04-24T05:13:42.078Z,5.43
2018-04-24T05:16:08.701Z,5.77
2018-04-24T05:18:35.320Z,6.00
2018-04-24T05:21:02.007Z,5.40
2018-04-24T05:23:28.602Z,5.60
2018-04-24T05:25:55.262Z,5.27
2018-04-24T05:28:21.893Z,5.70
2018-04-24T05:30:48.593Z,7.07
2018-04-24T05:33:15.214Z,6.30
2018-04-24T05:35:41.823Z,5.87
2018-04-24T05:38:08.479Z,6.70
2018-04-24T05:40:35.117Z,5.40
2018-04-24T05:43:01.732Z,5.47
2018-04-24T05:45:28.340Z,5.87
2018-04-24T05:47:54.957Z,5.43
2018-04-24T05:50:21.572Z,4.60
2018-04-24T05:52:48.198Z,4.83
2018-04-24T05:55:14.837Z,6.30
2018-04-24T05:57:41.432Z,5.40
2018-04-24T06:00:08.051Z,5.27
2018-04-24T06:02:34.694Z,4.30
2018-04-24T06:05:01.335Z,4.80
2018-04-24T06:07:27.953Z,4.97
2018-04-24T06:09:54.580Z,5.10
2018-04-24T06:12:21.201Z,4.73
2018-04-24T06:14:48.549Z,4.30
2018-04-24T06:17:15.175Z,4.73
2018-04-24T06:19:41.798Z,4.70
2018-04-24T06:22:08.495Z,3.87
2018-04-24T06:24:35.909Z,4.60
2018-04-24T06:27:02.576Z,4.13
2018-04-24T06:29:29.298Z,4.23
2018-04-24T06:31:56.011Z,5.00
2018-04-24T06:34:22.722Z,4.57
2018-04-24T06:36:50.119Z,3.87
2018-04-24T06:39:16.800Z,4.53
2018-04-24T06:41:43.439Z,4.13
2018-04-24T06:44:10.122Z,4.13
2018-04-24T06:46:37.575Z,3.23
2018-04-24T06:49:04.983Z,3.13
2018-04-24T06:51:31.807Z,3.63
2018-04-24T06:53:58.465Z,2.80
2018-04-24T06:56:25.168Z,3.00
2018-04-24T06:58:51.784Z,3.00
2018-04-24T07:01:18.489Z,3.77
2018-04-24T07:03:45.190Z,3.40
2018-04-24T07:06:12.604Z,3.30
2018-04-24T07:08:39.299Z,2.53
2018-04-24T07:11:06.689Z,3.20
2018-04-24T07:13:33.354Z,2.70
2018-04-24T07:16:00.066Z,3.30
2018-04-24T07:18:26.738Z,2.40
2018-04-24T07:20:53.412Z,3.20
2018-04-24T07:23:20.175Z,3.20
2018-04-24T07:25:47.618Z,2.60
2018-04-24T07:28:14.273Z,2.57
2018-04-24T07:30:41.673Z,2.77
2018-04-24T07:33:08.400Z,2.90
2018-04-24T07:35:35.166Z,2.53
2018-04-24T07:38:01.829Z,2.60
2018-04-24T07:40:28.512Z,2.93
2018-04-24T07:42:55.899Z,2.67
2018-04-24T07:45:22.567Z,2.60
2018-04-24T07:47:49.255Z,2.33
2018-04-24T07:50:16.700Z,2.50
2018-04-24T07:52:43.378Z,2.37
2018-04-24T07:55:10.107Z,2.43
2018-04-24T07:57:37.550Z,2.43
2018-04-24T08:00:04.277Z,2.50
2018-04-24T08:02:31.116Z,2.17
2018-04-24T08:04:57.947Z,2.70
2018-04-24T08:07:24.641Z,2.40
2018-04-24T08:09:52.054Z,2.57
2018-04-24T08:12:18.680Z,2.20
2018-04-24T08:14:45.337Z,2.40
2018-04-24T08:17:12.020Z,2.80
2018-04-24T08:19:38.813Z,2.70
2018-04-24T08:22:05.519Z,3.30
2018-04-24T08:24:32.994Z,2.50
2018-04-24T08:26:59.736Z,3.20
2018-04-24T08:29:27.168Z,3.00
2018-04-24T08:31:53.980Z,2.60
2018-04-24T08:34:21.433Z,2.87
2018-04-24T08:36:48.106Z,2.50
2018-04-24T08:39:14.754Z,2.77
2018-04-24T08:41:41.448Z,3.10
2018-04-24T08:44:08.153Z,2.43
2018-04-24T08:46:34.834Z,2.77
2018-04-24T08:49:01.446Z,3.00
2018-04-24T08:51:28.867Z,3.53
2018-04-24T08:53:55.533Z,3.00
2018-04-24T08:56:22.220Z,2.80
2018-04-24T08:58:49.641Z,3.73
2018-04-24T09:01:17.051Z,3.20
2018-04-24T09:03:43.754Z,3.57
2018-04-24T09:06:11.209Z,2.80
2018-04-24T09:08:38.671Z,3.80
2018-04-24T09:11:05.309Z,3.50
2018-04-24T09:13:31.981Z,3.00
2018-04-24T09:15:59.382Z,3.03
2018-04-24T09:18:26.065Z,3.43
2018-04-24T09:20:53.468Z,3.37
2018-04-24T09:23:20.156Z,2.40
2018-04-24T09:25:46.794Z,4.17
2018-04-24T09:28:13.509Z,3.50
2018-04-24T09:30:40.192Z,3.10
2018-04-24T09:33:07.585Z,3.60
2018-04-24T09:35:34.274Z,3.40
2018-04-24T09:38:00.911Z,3.60
2018-04-24T09:40:27.659Z,3.30
2018-04-24T09:42:54.346Z,3.17
2018-04-24T09:45:21.013Z,2.70
2018-04-24T09:47:47.722Z,3.60
2018-04-24T09:50:15.152Z,3.33
2018-04-24T09:52:41.789Z,2.83
2018-04-24T09:55:08.437Z,2.50
2018-04-24T09:57:35.109Z,3.03
2018-04-24T10:00:02.671Z,3.23
2018-04-24T10:02:30.129Z,2.60
2018-04-24T10:04:57.597Z,3.50
2018-04-24T10:07:25.023Z,3.57
2018-04-24T10:09:51.702Z,3.00
2018-04-24T10:12:19.133Z,3.93
2018-04-24T10:14:45.808Z,3.13
2018-04-24T10:17:12.510Z,3.17
2018-04-24T10:19:39.230Z,3.07
2018-04-24T10:22:05.919Z,3.37
2018-04-24T10:24:32.572Z,3.03
2018-04-24T10:26:59.983Z,3.80
2018-04-24T10:29:26.922Z,3.20
2018-04-24T10:31:53.581Z,3.60
2018-04-24T10:34:20.257Z,2.80
2018-04-24T10:36:47.682Z,3.13
2018-04-24T10:39:14.335Z,2.70
2018-04-24T10:41:41.050Z,2.60
2018-04-24T10:44:07.729Z,2.30
2018-04-24T10:46:34.362Z,2.90
2018-04-24T10:49:01.058Z,3.20
2018-04-24T10:51:27.732Z,2.90
2018-04-24T10:53:54.461Z,2.30
2018-04-24T10:56:21.301Z,2.77
2018-04-24T10:58:48.031Z,2.30
2018-04-24T11:01:14.844Z,2.70
2018-04-24T11:03:41.692Z,2.97
2018-04-24T11:06:08.467Z,3.13
2018-04-24T11:08:35.947Z,3.40
2018-04-24T11:11:02.910Z,2.80
2018-04-24T11:13:29.610Z,2.20
2018-04-24T11:15:56.377Z,2.57
2018-04-24T11:18:23.396Z,2.70
2018-04-24T11:20:50.060Z,2.33
2018-04-24T11:23:16.719Z,2.53
2018-04-24T11:25:43.651Z,2.60
2018-04-24T11:28:12.549Z,1.90
2018-04-24T11:30:39.205Z,2.27
2018-04-24T11:33:05.848Z,2.27
2018-04-24T11:35:32.504Z,1.93
2018-04-24T11:37:59.206Z,1.53
2018-04-24T11:40:26.599Z,1.80
2018-04-24T11:42:53.359Z,2.23
2018-04-24T11:45:20.018Z,2.00
2018-04-24T11:47:46.661Z,1.80
2018-04-24T11:50:13.307Z,1.80
2018-04-24T11:52:39.932Z,2.10
2018-04-24T11:55:06.610Z,1.57
2018-04-24T11:57:33.260Z,1.70
2018-04-24T12:00:00.637Z,2.10
2018-04-24T12:02:27.291Z,1.80
2018-04-24T12:04:53.890Z,2.10
2018-04-24T12:07:20.558Z,1.97
2018-04-24T12:09:47.284Z,2.10
2018-04-24T12:12:14.659Z,2.37
2018-04-24T12:14:42.090Z,1.90
2018-04-24T12:17:08.742Z,1.50
2018-04-24T12:19:36.114Z,2.47
2018-04-24T12:22:04.354Z,1.70
2018-04-24T12:24:31.835Z,1.50
2018-04-24T12:26:58.414Z,2.10
2018-04-24T12:29:25.080Z,1.80
2018-04-24T12:31:51.757Z,2.00
2018-04-24T12:34:18.425Z,1.97
2018-04-24T12:36:45.833Z,1.67
2018-04-24T12:39:12.492Z,2.57
2018-04-24T12:41:39.107Z,1.67
2018-04-24T12:44:05.768Z,2.10
2018-04-24T12:46:32.405Z,1.90
2018-04-24T12:48:59.037Z,1.60
2018-04-24T12:51:25.660Z,1.80
2018-04-24T12:53:52.365Z,2.07
2018-04-24T12:56:19.759Z,2.33
2018-04-24T12:58:46.408Z,2.00
2018-04-24T13:01:13.085Z,2.10
2018-04-24T13:03:39.724Z,2.63
2018-04-24T13:06:06.342Z,2.30
2018-04-24T13:08:33.030Z,2.40
2018-04-24T13:10:59.801Z,2.40
2018-04-24T13:13:27.174Z,3.00
2018-04-24T13:15:53.920Z,3.50
2018-04-24T13:18:20.549Z,3.20
2018-04-24T13:20:47.177Z,3.37
2018-04-24T13:23:14.753Z,2.70
2018-04-24T13:25:42.234Z,2.97
2018-04-24T13:28:08.859Z,3.13
2018-04-24T13:30:35.507Z,3.30
2018-04-24T13:33:02.163Z,2.50
2018-04-24T13:35:28.840Z,2.23
2018-04-24T13:37:55.545Z,2.57
2018-04-24T13:40:22.204Z,2.70
2018-04-24T13:42:48.822Z,3.50
2018-04-24T13:45:15.496Z,3.03
2018-04-24T13:47:42.144Z,3.40
2018-04-24T13:50:08.972Z,4.13
2018-04-24T13:52:35.633Z,4.07
2018-04-24T13:55:02.285Z,4.23
2018-04-24T13:57:28.975Z,4.33
2018-04-24T13:59:55.634Z,4.10
2018-04-24T14:02:22.284Z,3.40
2018-04-24T14:04:48.958Z,2.80
2018-04-24T14:07:15.630Z,3.40
2018-04-24T14:09:43.042Z,3.90
2018-04-24T14:12:09.701Z,4.00
2018-04-24T14:14:36.411Z,3.40
2018-04-24T14:17:03.075Z,3.70
2018-04-24T14:19:29.750Z,3.27
2018-04-24T14:21:56.390Z,4.50
2018-04-24T14:24:23.022Z,3.50
2018-04-24T14:26:49.719Z,3.50
2018-04-24T14:29:16.437Z,3.73
2018-04-24T14:31:43.152Z,3.73
2018-04-24T14:34:11.370Z,3.93
2018-04-24T14:36:38.049Z,3.53
2018-04-24T14:39:05.757Z,3.43
2018-04-24T14:41:33.145Z,4.17
2018-04-24T14:43:59.863Z,3.70
2018-04-24T14:46:27.241Z,3.20
2018-04-24T14:48:53.930Z,3.40
2018-04-24T14:51:20.582Z,3.30
2018-04-24T14:53:47.257Z,3.80
2018-04-24T14:56:15.277Z,3.07
2018-04-24T14:58:41.942Z,3.07
2018-04-24T15:01:08.573Z,3.30
2018-04-24T15:03:35.218Z,4.10
2018-04-24T15:06:01.906Z,3.60
2018-04-24T15:08:29.313Z,3.33
2018-04-24T15:10:56.026Z,3.80
2018-04-24T15:13:22.678Z,3.80
2018-04-24T15:15:49.356Z,3.23
2018-04-24T15:18:15.997Z,3.80
2018-04-24T15:20:42.643Z,3.90
2018-04-24T15:23:09.317Z,3.97
2018-04-24T15:25:36.704Z,3.33
2018-04-24T15:28:03.467Z,3.17
2018-04-24T15:30:30.126Z,3.27
2018-04-24T15:32:56.838Z,2.97
2018-04-24T15:35:23.540Z,3.37
2018-04-24T15:37:50.965Z,3.80
2018-04-24T15:40:17.594Z,3.90
2018-04-24T15:42:44.289Z,4.13
2018-04-24T15:45:11.707Z,3.47
2018-04-24T15:47:38.336Z,3.50
2018-04-24T15:50:05.024Z,3.70
2018-04-24T15:52:31.669Z,3.33
2018-04-24T15:54:59.094Z,3.37
2018-04-24T15:57:26.492Z,3.73
2018-04-24T15:59:53.897Z,3.27
2018-04-24T16:02:20.529Z,3.83
2018-04-24T16:04:47.253Z,3.10
2018-04-24T16:07:13.902Z,3.73
2018-04-24T16:09:40.556Z,3.33
2018-04-24T16:12:07.249Z,3.47
2018-04-24T16:14:33.908Z,4.57
2018-04-24T16:17:01.300Z,4.20
2018-04-24T16:19:27.953Z,4.00
2018-04-24T16:21:54.626Z,3.60
2018-04-24T16:24:21.294Z,3.60
2018-04-24T16:26:48.778Z,4.20
2018-04-24T16:29:15.387Z,4.13
2018-04-24T16:31:42.009Z,3.50
2018-04-24T16:34:08.709Z,3.80
2018-04-24T16:36:35.385Z,3.70
2018-04-24T16:39:02.136Z,4.33
2018-04-24T16:41:28.869Z,4.60
2018-04-24T16:43:55.488Z,4.23
2018-04-24T16:46:22.226Z,4.50
2018-04-24T16:48:48.889Z,4.43
2018-04-24T16:51:15.521Z,4.70
2018-04-24T16:53:42.214Z,3.93
2018-04-24T16:56:08.938Z,4.20
2018-04-24T16:58:35.534Z,4.77
2018-04-24T17:01:02.179Z,4.70
2018-04-24T17:03:29.575Z,4.27
2018-04-24T17:05:56.238Z,4.63
2018-04-24T17:08:22.903Z,4.50
2018-04-24T17:10:50.355Z,4.93
2018-04-24T17:13:17.711Z,3.70
2018-04-24T17:15:44.357Z,4.83
2018-04-24T17:18:11.761Z,4.93
2018-04-24T17:20:38.398Z,4.70
2018-04-24T17:23:05.060Z,5.60
2018-04-24T17:25:31.766Z,4.00
2018-04-24T17:27:58.413Z,4.50
2018-04-24T17:30:25.108Z,4.90
2018-04-24T17:32:51.856Z,4.87
2018-04-24T17:35:18.495Z,5.87
2018-04-24T17:37:45.184Z,4.83
2018-04-24T17:40:11.891Z,4.80
2018-04-24T17:42:38.573Z,4.80
2018-04-24T17:45:05.253Z,4.97
2018-04-24T17:47:31.968Z,5.40
2018-04-24T17:49:58.642Z,4.90
2018-04-24T17:52:26.081Z,5.50
2018-04-24T17:54:52.759Z,7.67
2018-04-24T17:57:19.466Z,7.10
2018-04-24T17:59:46.108Z,7.23
2018-04-24T18:02:12.777Z,7.30
2018-04-24T18:04:39.429Z,8.80
2018-04-24T18:07:06.141Z,6.80
2018-04-24T18:09:32.815Z,7.23
2018-04-24T18:11:59.511Z,7.67
2018-04-24T18:14:26.214Z,7.57
2018-04-24T18:16:52.935Z,7.20
2018-04-24T18:19:19.600Z,6.70
2018-04-24T18:21:46.258Z,6.00
2018-04-24T18:24:13.673Z,6.00
2018-04-24T18:26:40.406Z,6.10
2018-04-24T18:29:07.048Z,5.23
2018-04-24T18:31:35.366Z,5.20
2018-04-24T18:34:02.043Z,5.23
2018-04-24T18:36:28.754Z,5.97
2018-04-24T18:38:55.438Z,5.43
2018-04-24T18:41:22.189Z,6.00
2018-04-24T18:43:48.891Z,5.60
2018-04-24T18:46:15.571Z,6.60
2018-04-24T18:48:42.254Z,5.90
2018-04-24T18:51:08.942Z,6.60
2018-04-24T18:53:35.625Z,6.50
2018-04-24T18:56:02.331Z,6.20
2018-04-24T18:58:29.007Z,6.10
2018-04-24T19:00:55.713Z,5.43
2018-04-24T19:03:22.447Z,5.57
2018-04-24T19:05:50.212Z,6.20
2018-04-24T19:08:17.651Z,5.70
2018-04-24T19:10:44.536Z,6.20
2018-04-24T19:13:11.237Z,6.10
2018-04-24T19:15:37.921Z,6.57
2018-04-24T19:18:04.635Z,6.50
2018-04-24T19:20:31.301Z,5.80
2018-04-24T19:22:58.004Z,7.20
2018-04-24T19:25:30.778Z,6.60
2018-04-24T19:27:57.497Z,6.60
2018-04-24T19:30:24.233Z,7.17
2018-04-24T19:32:50.920Z,6.00
2018-04-24T19:35:17.606Z,6.70
2018-04-24T19:37:44.287Z,6.60
2018-04-24T19:40:16.893Z,5.77
2018-04-24T19:42:43.668Z,6.50
2018-04-24T19:45:11.084Z,6.50
2018-04-24T19:47:37.742Z,6.00
2018-04-24T19:50:10.552Z,6.37
2018-04-24T19:52:37.973Z,6.20
2018-04-24T19:55:10.551Z,5.70
2018-04-24T19:57:37.238Z,6.90
2018-04-24T20:00:04.832Z,6.30
2018-04-24T20:02:31.492Z,5.93
2018-04-24T20:04:58.241Z,7.00
2018-04-24T20:07:25.672Z,6.20
2018-04-24T20:09:52.340Z,7.00
2018-04-24T20:12:19.094Z,7.80
2018-04-24T20:14:45.749Z,6.30
2018-04-24T20:17:13.191Z,6.77
2018-04-24T20:19:39.907Z,7.47
2018-04-24T20:22:06.589Z,6.17
2018-04-24T20:24:33.254Z,6.50
2018-04-24T20:26:59.955Z,7.00
2018-04-24T20:29:26.615Z,6.53
2018-04-24T20:31:53.309Z,6.47
2018-04-24T20:34:20.759Z,6.40
2018-04-24T20:36:48.253Z,7.30
2018-04-24T20:39:14.935Z,7.27
2018-04-24T20:41:41.654Z,7.43
2018-04-24T20:44:08.319Z,6.73
2018-04-24T20:46:34.968Z,7.77
2018-04-24T20:49:01.665Z,7.47
2018-04-24T20:51:28.345Z,7.67
2018-04-24T20:53:55.001Z,7.70
2018-04-24T20:56:21.665Z,7.37
2018-04-24T20:58:49.080Z,7.60
2018-04-24T21:01:15.786Z,6.80
2018-04-24T21:03:42.475Z,7.03
2018-04-24T21:06:09.263Z,7.20
2018-04-24T21:08:35.903Z,8.03
2018-04-24T21:11:03.292Z,8.17
2018-04-24T21:13:29.958Z,7.80
2018-04-24T21:15:56.620Z,7.43
2018-04-24T21:18:23.303Z,6.67
2018-04-24T21:20:50.013Z,7.67
2018-04-24T21:23:16.706Z,7.83
2018-04-24T21:25:43.401Z,6.90
2018-04-24T21:28:10.067Z,7.80
2018-04-24T21:30:37.491Z,7.70
2018-04-24T21:33:04.209Z,7.20
2018-04-24T21:35:30.885Z,7.10
2018-04-24T21:37:57.557Z,7.23
2018-04-24T21:40:25.025Z,6.57
2018-04-24T21:42:51.718Z,8.20
2018-04-24T21:45:18.377Z,6.77
2018-04-24T21:47:45.032Z,6.77
2018-04-24T21:50:12.444Z,7.13
2018-04-24T21:55:12.486Z,7.40
2018-04-24T21:57:39.168Z,8.27
2018-04-24T22:00:05.875Z,7.00
2018-04-24T22:02:32.538Z,7.47
2018-04-24T22:04:59.182Z,7.50
2018-04-24T22:07:25.869Z,7.20
2018-04-24T22:09:53.279Z,7.03
2018-04-24T22:12:19.933Z,7.50
2018-04-24T22:14:46.614Z,7.13
2018-04-24T22:17:13.318Z,7.10
2018-04-24T22:19:39.972Z,7.40
2018-04-24T22:22:06.634Z,7.77
2018-04-24T22:24:34.036Z,6.90
2018-04-24T22:27:00.714Z,7.17
2018-04-24T22:29:27.354Z,7.77
2018-04-24T22:31:54.009Z,7.60
2018-04-24T22:34:21.399Z,8.10
2018-04-24T22:36:48.065Z,8.03
2018-04-24T22:39:14.770Z,7.27
2018-04-24T22:41:42.181Z,7.23
2018-04-24T22:44:08.829Z,8.23
2018-04-24T22:46:35.517Z,8.30
2018-04-24T22:49:02.172Z,7.47
2018-04-24T22:51:28.820Z,7.83
2018-04-24T22:53:55.506Z,7.77
2018-04-24T22:56:22.136Z,7.23
2018-04-24T22:58:48.793Z,7.73
2018-04-24T23:01:15.455Z,7.43
2018-04-24T23:03:42.845Z,7.57
2018-04-24T23:06:09.517Z,6.93
2018-04-24T23:08:36.200Z,8.00
2018-04-24T23:11:21.876Z,7.70
2018-04-24T23:14:06.882Z,8.10
2018-04-24T23:16:52.047Z,7.20
2018-04-24T23:19:37.924Z,7.53
2018-04-24T23:22:04.189Z,7.83
2018-04-24T23:24:30.856Z,8.20
2018-04-24T23:26:57.550Z,7.83
2018-04-24T23:29:24.933Z,8.10
2018-04-24T23:31:51.573Z,7.37
2018-04-24T23:34:18.263Z,8.33
2018-04-24T23:36:44.921Z,7.90
2018-04-24T23:39:11.611Z,7.90
2018-04-24T23:41:38.312Z,7.30
2018-04-24T23:44:04.988Z,7.07
2018-04-24T23:46:31.731Z,6.97
2018-04-24T23:48:58.453Z,8.17
2018-04-24T23:51:25.144Z,7.57
2018-04-24T23:53:51.817Z,8.40
2018-04-24T23:56:18.508Z,6.93
2018-04-24T23:58:45.216Z,8.00
